createdAt,value
2018-01-12T00:01:52.353Z,23.30
2018-01-12T00:04:18.901Z,24.67
2018-01-12T00:06:45.938Z,26.60
2018-01-12T00:09:12.237Z,21.20
2018-01-12T00:11:39.440Z,17.77
2018-01-12T00:14:07.419Z,25.53
2018-01-12T00:16:33.804Z,23.73
2018-01-12T00:19:00.150Z,23.03
2018-01-12T00:21:26.950Z,16.97
2018-01-12T00:23:53.614Z,22.40
2018-01-12T00:26:20.880Z,18.67
2018-01-12T00:28:47.148Z,20.87
2018-01-12T00:31:13.436Z,20.33
2018-01-12T00:33:39.764Z,21.37
2018-01-12T00:36:06.063Z,22.60
2018-01-12T00:38:32.380Z,20.10
2018-01-12T00:40:58.710Z,20.33
2018-01-12T00:43:25.008Z,16.10
2018-01-12T00:45:51.335Z,20.67
2018-01-12T00:48:17.666Z,19.37
2018-01-12T00:50:43.972Z,18.97
2018-01-12T00:53:10.279Z,23.13
2018-01-12T00:55:36.622Z,21.33
2018-01-12T00:58:02.919Z,14.53
2018-01-12T01:00:29.197Z,17.60
2018-01-12T01:02:55.491Z,19.30
2018-01-12T01:05:21.851Z,16.77
2018-01-12T01:07:48.146Z,15.47
2018-01-12T01:10:14.474Z,18.27
2018-01-12T01:12:40.775Z,20.13
2018-01-12T01:15:07.089Z,14.83
2018-01-12T01:17:33.383Z,16.20
2018-01-12T01:20:00.423Z,23.43
2018-01-12T01:22:27.435Z,13.87
2018-01-12T01:24:53.765Z,18.93
2018-01-12T01:27:20.787Z,21.80
2018-01-12T01:29:47.074Z,18.37
2018-01-12T01:32:13.391Z,17.83
2018-01-12T01:34:39.663Z,19.60
2018-01-12T01:37:05.921Z,16.67
2018-01-12T01:39:32.240Z,16.70
2018-01-12T01:41:58.519Z,16.90
2018-01-12T01:44:24.792Z,19.07
2018-01-12T01:46:51.074Z,19.80
2018-01-12T01:49:17.361Z,16.43
2018-01-12T01:51:43.668Z,15.20
2018-01-12T01:54:09.976Z,19.97
2018-01-12T01:56:37.070Z,16.80
2018-01-12T01:59:03.413Z,17.30
2018-01-12T02:01:30.483Z,18.27
2018-01-12T02:03:56.787Z,17.80
2018-01-12T02:06:23.081Z,17.07
2018-01-12T02:08:50.119Z,22.57
2018-01-12T02:11:17.142Z,18.83
2018-01-12T02:13:44.146Z,17.93
2018-01-12T02:16:10.450Z,22.07
2018-01-12T02:18:36.730Z,15.83
2018-01-12T02:21:03.010Z,17.17
2018-01-12T02:23:29.355Z,17.13
2018-01-12T02:25:55.627Z,20.53
2018-01-12T02:28:21.887Z,17.90
2018-01-12T02:30:48.179Z,21.03
2018-01-12T02:33:14.444Z,19.43
2018-01-12T02:35:40.709Z,25.13
2018-01-12T02:38:07.755Z,19.37
2018-01-12T02:40:34.776Z,16.63
2018-01-12T02:43:01.783Z,21.37
2018-01-12T02:45:28.078Z,21.20
2018-01-12T02:47:54.347Z,20.67
2018-01-12T02:50:20.634Z,22.47
2018-01-12T02:52:46.974Z,18.03
2018-01-12T02:55:13.999Z,19.93
2018-01-12T02:57:41.003Z,30.67
2018-01-12T03:00:07.302Z,52.70
2018-01-12T03:02:33.583Z,29.40
2018-01-12T03:04:59.883Z,45.27
2018-01-12T03:07:26.192Z,30.33
2018-01-12T03:09:53.202Z,30.43
2018-01-12T03:12:19.490Z,32.37
2018-01-12T03:14:45.797Z,22.50
2018-01-12T03:17:12.073Z,23.87
2018-01-12T03:19:39.098Z,26.60
2018-01-12T03:22:05.434Z,24.00
2018-01-12T03:24:31.709Z,20.70
2018-01-12T03:26:57.995Z,23.97
2018-01-12T03:29:24.300Z,24.27
2018-01-12T03:31:50.599Z,23.67
2018-01-12T03:34:16.873Z,17.70
2018-01-12T03:36:43.158Z,21.77
2018-01-12T03:39:10.342Z,20.17
2018-01-12T03:41:36.601Z,19.07
2018-01-12T03:44:02.902Z,20.47
2018-01-12T03:46:29.188Z,17.53
2018-01-12T03:48:55.483Z,21.13
2018-01-12T03:51:21.788Z,20.53
2018-01-12T03:53:48.084Z,20.53
2018-01-12T03:56:14.354Z,19.90
2018-01-12T03:58:41.395Z,21.60
2018-01-12T04:01:07.675Z,23.00
2018-01-12T04:03:33.932Z,22.07
2018-01-12T04:06:00.268Z,24.13
2018-01-12T04:08:26.536Z,21.97
2018-01-12T04:10:52.850Z,23.17
2018-01-12T04:13:19.134Z,21.20
2018-01-12T04:15:45.421Z,18.77
2018-01-12T04:18:11.775Z,23.93
2018-01-12T04:20:38.072Z,19.23
2018-01-12T04:23:04.347Z,20.00
2018-01-12T04:25:31.374Z,21.07
2018-01-12T04:27:58.410Z,20.27
2018-01-12T04:30:25.422Z,27.53
2018-01-12T04:32:51.679Z,22.80
2018-01-12T04:35:17.965Z,24.43
2018-01-12T04:37:44.966Z,21.93
2018-01-12T04:40:11.251Z,19.63
2018-01-12T04:42:37.542Z,20.00
2018-01-12T04:45:03.843Z,186.47
2018-01-12T04:47:30.119Z,184.53
2018-01-12T04:49:56.415Z,99.53
2018-01-12T04:52:22.692Z,84.53
2018-01-12T04:54:49.705Z,67.63
2018-01-12T04:57:16.016Z,53.73
2018-01-12T04:59:42.295Z,46.73
2018-01-12T05:02:08.604Z,31.20
2018-01-12T05:04:34.907Z,34.93
2018-01-12T05:07:01.198Z,36.93
2018-01-12T05:09:28.203Z,29.17
2018-01-12T05:11:54.513Z,23.97
2018-01-12T05:14:20.792Z,27.63
2018-01-12T05:16:47.065Z,25.97
2018-01-12T05:19:13.360Z,24.20
2018-01-12T05:21:39.630Z,23.70
2018-01-12T05:24:05.919Z,28.93
2018-01-12T05:26:32.955Z,26.47
2018-01-12T05:28:59.960Z,23.73
2018-01-12T05:31:26.227Z,30.63
2018-01-12T05:33:52.527Z,29.43
2018-01-12T05:36:18.858Z,28.77
2018-01-12T05:38:45.159Z,31.93
2018-01-12T05:41:12.205Z,27.90
2018-01-12T05:43:38.559Z,24.00
2018-01-12T05:46:05.753Z,28.93
2018-01-12T05:48:32.054Z,23.27
2018-01-12T05:50:59.088Z,22.50
2018-01-12T05:53:26.119Z,25.70
2018-01-12T05:55:52.431Z,32.67
2018-01-12T05:58:19.447Z,31.90
2018-01-12T06:00:58.063Z,27.57
2018-01-12T06:06:27.270Z,24.60
2018-01-12T06:08:53.590Z,24.33
2018-01-12T06:11:19.856Z,24.37
2018-01-12T06:13:46.303Z,31.30
2018-01-12T06:16:13.380Z,27.27
2018-01-12T06:18:39.676Z,29.23
2018-01-12T06:21:05.966Z,23.13
2018-01-12T06:23:32.975Z,22.07
2018-01-12T06:25:59.234Z,26.43
2018-01-12T06:28:25.531Z,30.17
2018-01-12T06:30:52.540Z,28.30
2018-01-12T06:33:18.806Z,29.00
2018-01-12T06:35:45.114Z,29.80
2018-01-12T06:38:11.380Z,28.37
2018-01-12T06:40:37.644Z,26.97
2018-01-12T06:43:03.941Z,27.33
2018-01-12T06:45:30.952Z,36.57
2018-01-12T06:47:57.205Z,27.17
2018-01-12T06:50:23.503Z,31.07
2018-01-12T06:52:50.506Z,29.97
2018-01-12T06:55:16.863Z,24.03
2018-01-12T06:57:43.182Z,31.77
2018-01-12T07:00:09.479Z,23.33
2018-01-12T07:02:36.564Z,27.53
2018-01-12T07:05:02.891Z,29.53
2018-01-12T07:07:29.160Z,28.10
2018-01-12T07:09:55.443Z,30.73
2018-01-12T07:12:21.771Z,27.23
2018-01-12T07:14:48.071Z,28.57
2018-01-12T07:17:14.335Z,26.93
2018-01-12T07:19:40.631Z,29.40
2018-01-12T07:22:19.870Z,25.73
2018-01-12T07:24:46.158Z,33.77
2018-01-12T07:27:13.163Z,24.20
2018-01-12T07:29:39.440Z,30.20
2018-01-12T07:32:05.745Z,26.03
2018-01-12T07:34:32.026Z,28.67
2018-01-12T07:36:59.040Z,32.40
2018-01-12T07:39:25.351Z,24.77
2018-01-12T07:41:51.627Z,29.13
2018-01-12T07:44:17.910Z,23.43
2018-01-12T07:46:44.939Z,32.60
2018-01-12T07:49:11.206Z,22.20
2018-01-12T07:51:37.480Z,28.13
2018-01-12T07:54:04.554Z,26.90
2018-01-12T07:56:30.824Z,26.63
2018-01-12T07:58:57.823Z,25.43
2018-01-12T08:01:30.124Z,25.93
2018-01-12T08:03:56.416Z,25.70
2018-01-12T08:06:23.433Z,26.30
2018-01-12T08:08:49.721Z,27.37
2018-01-12T08:11:15.967Z,25.93
2018-01-12T08:13:42.255Z,25.50
2018-01-12T08:16:08.571Z,22.60
2018-01-12T08:18:34.830Z,26.20
2018-01-12T08:21:01.849Z,29.17
2018-01-12T08:23:28.150Z,22.73
2018-01-12T08:25:54.434Z,25.83
2018-01-12T08:28:22.101Z,30.83
2018-01-12T08:30:48.405Z,31.70
2018-01-12T08:33:14.787Z,29.37
2018-01-12T08:35:41.116Z,32.30
2018-01-12T08:38:07.408Z,27.97
2018-01-12T08:40:34.746Z,21.07
2018-01-12T08:43:02.159Z,32.10
2018-01-12T08:45:28.630Z,27.60
2018-01-12T08:47:54.937Z,27.30
2018-01-12T08:50:21.352Z,25.07
2018-01-12T08:52:47.694Z,28.47
2018-01-12T08:55:24.866Z,29.83
2018-01-12T08:57:51.267Z,36.37
2018-01-12T09:00:17.595Z,31.73
2018-01-12T09:02:43.917Z,39.47
2018-01-12T09:05:11.468Z,35.33
2018-01-12T09:07:38.045Z,32.10
2018-01-12T09:10:06.161Z,32.00
2018-01-12T09:12:33.564Z,37.23
2018-01-12T09:18:01.048Z,36.03
2018-01-12T09:20:33.523Z,43.27
2018-01-12T09:23:12.434Z,33.30
2018-01-12T09:25:38.846Z,41.17
2018-01-12T09:28:06.490Z,50.60
2018-01-12T09:30:33.146Z,52.73
2018-01-12T09:33:00.517Z,47.73
2018-01-12T09:35:28.051Z,54.87
2018-01-12T09:38:06.543Z,49.73
2018-01-12T09:40:47.350Z,52.37
2018-01-12T09:43:13.667Z,46.20
2018-01-12T09:45:40.433Z,41.23
2018-01-12T09:48:19.447Z,36.10
2018-01-12T09:50:46.201Z,35.77
2018-01-12T09:53:13.606Z,36.47
2018-01-12T09:55:40.356Z,29.30
2018-01-12T09:58:07.117Z,38.47
2018-01-12T10:00:40.296Z,34.47
2018-01-12T10:03:06.634Z,36.30
2018-01-12T10:05:32.930Z,51.33
2018-01-12T10:08:16.157Z,47.20
2018-01-12T10:10:42.466Z,44.97
2018-01-12T10:13:08.802Z,52.13
2018-01-12T10:15:35.309Z,39.23
2018-01-12T10:18:11.761Z,44.43
2018-01-12T10:20:38.216Z,47.03
2018-01-12T10:23:04.538Z,41.23
2018-01-12T10:25:30.945Z,43.13
2018-01-12T10:27:57.509Z,49.43
2018-01-12T10:33:31.352Z,51.33
2018-01-12T10:35:58.876Z,38.43
2018-01-12T10:38:26.383Z,56.90
2018-01-12T10:40:53.971Z,51.23
2018-01-12T10:43:20.243Z,49.43
2018-01-12T10:45:59.649Z,48.53
2018-01-12T10:48:39.319Z,44.90
2018-01-12T10:51:16.629Z,45.00
2018-01-12T10:53:43.694Z,94.10
2018-01-12T10:56:10.898Z,133.77
2018-01-12T10:58:37.578Z,80.57
2018-01-12T11:01:08.205Z,137.43
2018-01-12T11:03:35.287Z,88.97
2018-01-12T11:06:02.258Z,94.47
2018-01-12T11:08:29.907Z,81.87
2018-01-12T11:10:57.407Z,58.23
2018-01-12T11:13:24.522Z,96.63
2018-01-12T11:15:51.387Z,54.63
2018-01-12T11:18:18.018Z,54.63
2018-01-12T11:20:45.061Z,68.70
2018-01-12T11:23:12.789Z,54.60
2018-01-12T11:25:40.247Z,56.03
2018-01-12T11:28:08.165Z,57.13
2018-01-12T11:30:34.506Z,57.40
2018-01-12T11:33:01.610Z,73.03
2018-01-12T11:35:28.702Z,59.93
2018-01-12T11:37:55.704Z,53.90
2018-01-12T11:40:23.447Z,60.57
2018-01-12T11:42:50.478Z,71.00
2018-01-12T11:45:16.768Z,73.50
2018-01-12T11:47:43.785Z,77.93
2018-01-12T11:50:10.098Z,64.10
2018-01-12T11:52:37.683Z,61.37
2018-01-12T11:55:04.711Z,72.60
2018-01-12T11:57:32.502Z,53.03
2018-01-12T11:59:59.520Z,58.20
2018-01-12T12:02:26.577Z,57.77
2018-01-12T12:04:53.198Z,51.97
2018-01-12T12:07:19.503Z,60.67
2018-01-12T12:09:46.138Z,59.87
2018-01-12T12:12:14.020Z,60.70
2018-01-12T12:14:40.286Z,58.67
2018-01-12T12:17:08.114Z,59.23
2018-01-12T12:19:34.439Z,67.93
2018-01-12T12:22:00.996Z,52.57
2018-01-12T12:24:27.344Z,53.90
2018-01-12T12:26:53.651Z,60.53
2018-01-12T12:29:21.519Z,62.17
2018-01-12T12:31:48.108Z,53.37
2018-01-12T12:34:15.024Z,59.93
2018-01-12T12:36:42.106Z,53.27
2018-01-12T12:39:08.580Z,53.90
2018-01-12T12:41:35.608Z,54.83
2018-01-12T12:44:02.631Z,52.30
2018-01-12T12:46:37.908Z,51.63
2018-01-12T12:49:04.630Z,56.80
2018-01-12T12:51:30.922Z,51.27
2018-01-12T12:53:57.638Z,50.43
2018-01-12T12:56:26.193Z,49.20
2018-01-12T12:58:53.454Z,44.77
2018-01-12T13:01:19.849Z,54.93
2018-01-12T13:03:47.286Z,49.37
2018-01-12T13:06:14.661Z,47.50
2018-01-12T13:08:41.505Z,47.00
2018-01-12T13:11:07.806Z,64.07
2018-01-12T13:13:36.866Z,85.10
2018-01-12T13:16:03.236Z,65.93
2018-01-12T13:18:29.572Z,69.10
2018-01-12T13:20:56.589Z,61.70
2018-01-12T13:23:22.896Z,57.33
2018-01-12T13:25:49.177Z,58.27
2018-01-12T13:28:15.498Z,57.20
2018-01-12T13:30:41.801Z,58.33
2018-01-12T13:33:08.071Z,58.93
2018-01-12T13:35:34.339Z,51.97
2018-01-12T13:38:00.638Z,63.90
2018-01-12T13:40:26.950Z,56.87
2018-01-12T13:42:53.276Z,59.40
2018-01-12T13:45:19.568Z,54.50
2018-01-12T13:47:46.579Z,58.67
2018-01-12T13:50:12.979Z,62.27
2018-01-12T13:52:39.290Z,56.13
2018-01-12T13:55:05.550Z,55.37
2018-01-12T13:57:32.568Z,61.27
2018-01-12T13:59:58.860Z,52.70
2018-01-12T14:02:25.127Z,49.10
2018-01-12T14:04:51.384Z,58.80
2018-01-12T14:07:17.687Z,53.23
2018-01-12T14:09:43.956Z,49.23
2018-01-12T14:12:10.958Z,52.07
2018-01-12T14:14:37.250Z,52.13
2018-01-12T14:17:03.512Z,51.30
2018-01-12T14:19:30.547Z,48.50
2018-01-12T14:21:57.587Z,59.40
2018-01-12T14:24:24.598Z,57.90
2018-01-12T14:26:50.887Z,50.03
2018-01-12T14:29:17.207Z,50.90
2018-01-12T14:31:43.502Z,55.80
2018-01-12T14:34:09.771Z,57.30
2018-01-12T14:36:36.808Z,51.60
2018-01-12T14:39:03.894Z,52.20
2018-01-12T14:41:30.174Z,51.67
2018-01-12T14:43:57.181Z,51.33
2018-01-12T14:46:23.443Z,43.50
2018-01-12T14:48:49.827Z,47.07
2018-01-12T14:51:16.888Z,42.63
2018-01-12T14:53:44.038Z,35.23
2018-01-12T14:56:10.359Z,36.03
2018-01-12T14:58:36.687Z,43.33
2018-01-12T15:01:03.134Z,39.47
2018-01-12T15:03:30.306Z,40.20
2018-01-12T15:05:56.618Z,36.67
2018-01-12T15:08:23.123Z,36.60
2018-01-12T15:10:49.624Z,41.23
2018-01-12T15:13:16.146Z,40.23
2018-01-12T15:15:42.460Z,39.13
2018-01-12T15:18:08.904Z,34.07
2018-01-12T15:20:35.390Z,34.40
2018-01-12T15:23:01.863Z,30.40
2018-01-12T15:25:28.510Z,32.83
2018-01-12T15:27:54.906Z,36.43
2018-01-12T15:30:21.237Z,34.57
2018-01-12T15:32:47.553Z,40.33
2018-01-12T15:35:14.255Z,40.67
2018-01-12T15:37:42.037Z,34.77
2018-01-12T15:40:08.446Z,32.00
2018-01-12T15:42:35.173Z,33.43
2018-01-12T15:45:02.809Z,33.20
2018-01-12T15:47:29.158Z,30.40
2018-01-12T15:49:55.784Z,33.63
2018-01-12T15:52:23.000Z,30.53
2018-01-12T15:54:49.640Z,38.03
2018-01-12T15:57:17.952Z,31.13
2018-01-12T16:02:34.942Z,31.57
2018-01-12T16:05:01.275Z,41.50
2018-01-12T16:07:27.623Z,34.13
2018-01-12T16:09:54.729Z,33.70
2018-01-12T16:12:21.232Z,32.53
2018-01-12T16:14:48.096Z,33.10
2018-01-12T16:17:15.289Z,34.73
2018-01-12T16:19:43.135Z,26.17
2018-01-12T16:22:10.010Z,27.30
2018-01-12T16:24:40.626Z,31.20
2018-01-12T16:27:07.358Z,23.00
2018-01-12T16:29:34.297Z,29.17
2018-01-12T16:32:00.702Z,24.63
2018-01-12T16:34:27.466Z,28.37
2018-01-12T16:36:53.850Z,30.27
2018-01-12T16:39:20.649Z,27.97
2018-01-12T16:41:47.321Z,30.93
2018-01-12T16:44:17.450Z,28.43
2018-01-12T16:46:44.646Z,26.63
2018-01-12T16:49:11.812Z,23.87
2018-01-12T16:51:39.032Z,31.73
2018-01-12T16:54:05.493Z,27.13
2018-01-12T16:56:32.315Z,28.07
2018-01-12T16:58:59.258Z,33.20
2018-01-12T17:01:26.349Z,24.90
2018-01-12T17:03:53.434Z,28.20
2018-01-12T17:06:20.466Z,30.57
2018-01-12T17:08:48.475Z,30.90
2018-01-12T17:11:14.899Z,36.23
2018-01-12T17:13:41.502Z,37.87
2018-01-12T17:16:08.567Z,25.80
2018-01-12T17:18:36.457Z,33.83
2018-01-12T17:21:03.184Z,30.07
2018-01-12T17:23:30.672Z,23.77
2018-01-12T17:25:57.872Z,29.40
2018-01-12T17:28:25.498Z,30.97
2018-01-12T17:30:52.253Z,26.80
2018-01-12T17:33:20.028Z,22.37
2018-01-12T17:35:46.819Z,26.93
2018-01-12T17:38:13.639Z,26.57
2018-01-12T17:40:40.953Z,26.67
2018-01-12T17:43:07.863Z,23.80
2018-01-12T17:45:34.197Z,80.80
2018-01-12T17:48:01.239Z,41.90
2018-01-12T17:50:28.214Z,34.83
2018-01-12T17:52:55.034Z,31.77
2018-01-12T17:55:21.907Z,29.23
2018-01-12T17:57:48.975Z,28.80
2018-01-12T18:00:16.861Z,28.10
2018-01-12T18:02:43.158Z,31.50
2018-01-12T18:05:09.899Z,27.10
2018-01-12T18:07:36.232Z,30.40
2018-01-12T18:10:03.355Z,26.97
2018-01-12T18:12:30.254Z,26.07
2018-01-12T18:14:57.374Z,30.03
2018-01-12T18:17:23.844Z,21.93
2018-01-12T18:19:51.847Z,26.20
2018-01-12T18:22:18.923Z,29.57
2018-01-12T18:24:45.538Z,27.33
2018-01-12T18:27:11.855Z,26.90
2018-01-12T18:29:38.193Z,25.40
2018-01-12T18:32:04.495Z,39.10
2018-01-12T18:34:30.790Z,42.37
2018-01-12T18:36:57.158Z,56.80
2018-01-12T18:39:24.187Z,47.50
2018-01-12T18:41:51.269Z,36.27
2018-01-12T18:44:17.579Z,32.73
2018-01-12T18:46:43.862Z,36.40
2018-01-12T18:49:10.890Z,39.93
2018-01-12T18:51:37.939Z,41.83
2018-01-12T18:54:04.211Z,41.63
2018-01-12T18:56:30.566Z,44.83
2018-01-12T18:58:57.021Z,44.07
2018-01-12T19:01:23.478Z,35.97
2018-01-12T19:03:49.788Z,39.03
2018-01-12T19:06:16.304Z,39.93
2018-01-12T19:08:43.257Z,37.27
2018-01-12T19:11:10.830Z,33.63
2018-01-12T19:13:37.711Z,37.10
2018-01-12T19:16:04.786Z,46.80
2018-01-12T19:18:31.411Z,38.63
2018-01-12T19:20:57.947Z,40.40
2018-01-12T19:23:24.289Z,38.93
2018-01-12T19:25:50.580Z,39.20
2018-01-12T19:28:16.909Z,36.30
2018-01-12T19:30:43.226Z,32.97
2018-01-12T19:33:09.563Z,41.57
2018-01-12T19:35:35.866Z,33.93
2018-01-12T19:38:02.163Z,37.80
2018-01-12T19:40:28.490Z,33.43
2018-01-12T19:42:54.895Z,43.17
2018-01-12T19:45:21.180Z,40.57
2018-01-12T19:47:47.526Z,42.73
2018-01-12T19:50:14.571Z,40.80
2018-01-12T19:52:40.952Z,37.93
2018-01-12T19:55:07.246Z,37.97
2018-01-12T19:57:33.571Z,45.00
2018-01-12T20:00:00.595Z,47.73
2018-01-12T20:02:27.632Z,60.67
2018-01-12T20:04:53.943Z,99.53
2018-01-12T20:07:20.221Z,95.90
2018-01-12T20:09:46.543Z,47.40
2018-01-12T20:12:13.123Z,41.20
2018-01-12T20:14:39.403Z,45.23
2018-01-12T20:17:05.675Z,47.30
2018-01-12T20:19:31.977Z,60.63
2018-01-12T20:21:58.326Z,55.07
2018-01-12T20:24:24.624Z,51.27
2018-01-12T20:26:50.924Z,49.47
2018-01-12T20:29:17.223Z,48.70
2018-01-12T20:31:44.256Z,55.60
2018-01-12T20:34:11.298Z,51.07
2018-01-12T20:36:37.617Z,56.10
2018-01-12T20:39:03.982Z,59.63
2018-01-12T20:41:30.292Z,56.67
2018-01-12T20:43:56.585Z,57.90
2018-01-12T20:46:22.887Z,57.67
2018-01-12T20:48:49.179Z,59.33
2018-01-12T20:51:16.242Z,50.90
2018-01-12T20:53:42.535Z,60.97
2018-01-12T20:56:08.837Z,57.83
2018-01-12T20:58:35.833Z,50.83
2018-01-12T21:01:02.122Z,61.57
2018-01-12T21:03:28.428Z,55.13
2018-01-12T21:05:54.693Z,55.97
2018-01-12T21:08:21.019Z,62.37
2018-01-12T21:10:47.726Z,63.50
2018-01-12T21:13:14.028Z,66.93
2018-01-12T21:15:40.297Z,67.53
2018-01-12T21:18:07.330Z,61.00
2018-01-12T21:20:33.679Z,70.30
2018-01-12T21:23:00.043Z,52.43
2018-01-12T21:25:27.115Z,63.47
2018-01-12T21:27:53.382Z,66.43
2018-01-12T21:30:19.683Z,61.37
2018-01-12T21:32:46.004Z,57.93
2018-01-12T21:35:12.269Z,62.47
2018-01-12T21:37:38.604Z,57.20
2018-01-12T21:40:04.899Z,57.30
2018-01-12T21:42:31.195Z,58.93
2018-01-12T21:44:57.495Z,63.10
2018-01-12T21:47:23.900Z,69.13
2018-01-12T21:49:50.188Z,75.87
2018-01-12T21:52:16.475Z,59.50
2018-01-12T21:54:42.777Z,74.17
2018-01-12T21:57:09.807Z,62.90
2018-01-12T21:59:36.809Z,66.97
2018-01-12T22:02:03.924Z,61.00
2018-01-12T22:04:30.214Z,59.43
2018-01-12T22:06:56.494Z,55.87
2018-01-12T22:09:22.775Z,59.93
2018-01-12T22:11:49.051Z,67.90
2018-01-12T22:14:15.351Z,51.50
2018-01-12T22:16:42.411Z,61.07
2018-01-12T22:19:08.672Z,56.17
2018-01-12T22:21:34.930Z,58.20
2018-01-12T22:24:01.236Z,52.70
2018-01-12T22:26:27.542Z,60.23
2018-01-12T22:28:54.556Z,63.53
2018-01-12T22:31:20.855Z,54.80
2018-01-12T22:33:47.160Z,54.53
2018-01-12T22:36:13.463Z,56.40
2018-01-12T22:38:39.798Z,57.33
2018-01-12T22:41:06.083Z,66.00
2018-01-12T22:43:32.347Z,60.50
2018-01-12T22:45:58.666Z,61.33
2018-01-12T22:48:24.978Z,64.87
2018-01-12T22:50:51.232Z,72.30
2018-01-12T22:53:17.526Z,62.97
2018-01-12T22:55:44.546Z,58.57
2018-01-12T22:58:10.810Z,55.13
2018-01-12T23:00:37.255Z,63.73
2018-01-12T23:03:03.527Z,59.53
2018-01-12T23:05:30.544Z,59.97
2018-01-12T23:07:57.577Z,61.07
2018-01-12T23:10:24.604Z,61.87
2018-01-12T23:12:51.665Z,60.70
2018-01-12T23:15:17.963Z,56.73
2018-01-12T23:17:45.020Z,67.83
2018-01-12T23:20:11.294Z,60.43
2018-01-12T23:22:40.086Z,64.23
2018-01-12T23:25:07.219Z,54.37
2018-01-12T23:27:33.526Z,68.33
2018-01-12T23:30:00.554Z,58.70
2018-01-12T23:32:27.573Z,61.50
2018-01-12T23:34:57.184Z,64.47
2018-01-12T23:37:24.335Z,62.17
2018-01-12T23:39:52.945Z,77.10
2018-01-12T23:42:19.735Z,67.93
2018-01-12T23:44:46.044Z,55.03
2018-01-12T23:47:12.317Z,53.97
2018-01-12T23:49:38.772Z,70.90
2018-01-12T23:52:05.083Z,56.53
2018-01-12T23:54:32.142Z,58.83
2018-01-12T23:56:58.401Z,69.00
2018-01-12T23:59:24.698Z,61.67
